St. Joseph, MO

5:58 AM CDT on October 02, 2014 (GMT -0500)
St. Joseph | Change Station
CLOSE
Current Station
Airport
Location: St. Joseph,
Elevation: 817 ft
Nearby Weather Stations

Elev 817 ft 39.77 °N, 94.91 °W | Updated 5 minutes ago

Overcast
Overcast
66 °F
Feels Like 66 °F
N
5
Wind Variable Wind from ENE

Today
High -- | Low -- °F
--% Chance of Precip.
Yesterday
High -- | Low -- °F
Precip. -- in
7:16 AM 7:00 PM
First Quarter, 57% visible
Pressure 29.73 in
Visibility 10.0 miles
Clouds Mostly Cloudy 500 ft
Overcast 2400 ft
Dew Point 64 °F
Humidity 93%
Rainfall 0.00 in
Snow Depth Not available.
UV 0 out of 12
Pollen .50 out of 12
Air Quality Not available.
Flu Activity Not available.
METAR KSTJ 021053Z AUTO 06004KT 10SM BKN005 OVC024 19/18 A2975 RMK AO2 SLP067 T01890178

More Conditions Fewer Conditions

Pressure 29.73 in
Visibility 10.0 miles
Clouds Mostly Cloudy 500 ft
Overcast 2400 ft
Dew Point 64 °F
Humidity 93%
Rainfall 0.00 in
Snow Depth Not available.
UV 0 out of 12
Pollen .50 out of 12
Air Quality Not available.
Flu Activity Not available.
METAR KSTJ 021053Z AUTO 06004KT 10SM BKN005 OVC024 19/18 A2975 RMK AO2 SLP067 T01890178

More Conditions Fewer Conditions

10-Day Weather Forecast

Almanac

Astronomy

Oct. 02, 2014 Rise Set
Actual Time 7:16 AM CDT 7:00 PM CDT
Civil Twilight 6:49 AM CDT 7:27 PM CDT
Nautical Twilight 6:18 AM CDT 7:58 PM CDT
Astronomical Twilight 5:47 AM CDT 8:29 PM CDT
Moon 3:06 PM CDT 12:35 AM CDT
Length of Visible Light 12h 37m
Length of Day
11h 43m
Tomorrow will be 2m 35s shorter.
First Quarter, 57% of the Moon is Illuminated
Today
First Quarter
Oct 8
Full
Oct 15
Last Quarter
Oct 23
New
Oct 30
First Quarter

Today's Extremes

State Highs State Lows

Community

WunderPhotos

Upload Photos

1,758,210 photos uploaded!

WunderBlogs® & News

Nearby

Snow Depth

Station Depth Elevation
No new snow has been reported.

Earthquake Activity

City Distance Mag. Time & Date
No recent earthquake activity has been reported nearby.
Minimum magnitude displayed is 2.5.

Coastal Water Temperatures

Place Temperature
No Stations Reporting

Nearby Weather Stations